Time,TemperatureF,DewpointF,PressureIn,WindDirection,WindDirectionDegrees,WindSpeedMPH,WindSpeedGustMPH,Humidity,HourlyPrecipIn,Conditions,Clouds,dailyrainin,SoftwareType,DateUTC
2013-04-10 00:03:00,42.9,38.4,29.94,NW,325,5.8,5.8,84,0.00,OVC,OVC,0.00,WeatherDisplay:10.37,2013-04-10 05:03:00,
2013-04-10 00:08:00,42.8,38.3,29.92,NE,40,7.0,7.0,84,0.00,OVC,OVC,0.00,WeatherDisplay:10.37,2013-04-10 05:08:00,
2013-04-10 00:13:00,42.6,38.1,29.92,NW,325,6.9,6.9,84,0.00,OVC,OVC,0.00,WeatherDisplay:10.37,2013-04-10 05:13:00,
2013-04-10 00:19:00,42.5,38.0,29.93,North,5,15.0,15.0,84,0.00,OVC,OVC,0.00,WeatherDisplay:10.37,2013-04-10 05:19:00,
2013-04-10 00:24:00,42.4,37.6,29.93,North,11,10.4,10.4,83,0.00,OVC,OVC,0.00,WeatherDisplay:10.37,2013-04-10 05:24:00,
2013-04-10 00:29:00,42.2,37.7,29.93,NNE,31,10.4,10.4,84,0.00,OVC,OVC,0.00,WeatherDisplay:10.37,2013-04-10 05:29:00,
2013-04-10 00:34:00,42.0,37.5,29.92,NNW,340,13.8,13.8,84,0.00,OVC,OVC,0.00,WeatherDisplay:10.37,2013-04-10 05:34:00,
2013-04-10 00:39:00,41.9,37.4,29.91,NE,39,17.3,17.3,84,0.00,OVC,OVC,0.00,WeatherDisplay:10.37,2013-04-10 05:39:00,
2013-04-10 00:44:00,41.8,37.3,29.90,North,9,18.4,18.4,84,0.00,OVC,OVC,0.00,WeatherDisplay:10.37,2013-04-10 05:44:00,
2013-04-10 00:50:00,41.8,37.3,29.90,NW,313,17.3,17.3,84,0.00,OVC,OVC,0.00,WeatherDisplay:10.37,2013-04-10 05:50:00,
2013-04-10 00:55:00,41.7,37.2,29.90,NNE,24,13.8,13.8,84,0.00,OVC,OVC,0.00,WeatherDisplay:10.37,2013-04-10 05:55:00,
2013-04-10 01:00:00,41.6,37.1,29.89,NNE,30,17.3,17.3,84,0.00,OVC,OVC,0.00,WeatherDisplay:10.37,2013-04-10 06:00:00,
2013-04-10 01:05:00,41.5,36.7,29.87,NE,36,16.1,16.1,83,0.00,OVC,OVC,0.00,WeatherDisplay:10.37,2013-04-10 06:05:00,
2013-04-10 01:10:00,41.5,36.7,29.88,NE,47,16.1,16.1,83,0.00,OVC,OVC,0.00,WeatherDisplay:10.37,2013-04-10 06:10:00,
2013-04-10 01:16:00,41.5,36.7,29.87,ENE,70,15.0,15.0,83,0.00,OVC,OVC,0.00,WeatherDisplay:10.37,2013-04-10 06:16:00,
2013-04-10 01:21:00,41.5,36.7,29.86,ENE,65,15.0,15.0,83,0.00,OVC,OVC,0.00,WeatherDisplay:10.37,2013-04-10 06:21:00,
2013-04-10 01:26:00,41.6,36.8,29.87,ENE,73,12.7,12.7,83,0.00,OVC,OVC,0.00,WeatherDisplay:10.37,2013-04-10 06:26:00,
2013-04-10 01:32:00,41.8,36.7,29.85,East,84,6.9,6.9,82,0.00,OVC,OVC,0.00,WeatherDisplay:10.37,2013-04-10 06:32:00,
2013-04-10 01:37:00,41.9,36.8,29.85,ESE,106,15.0,15.0,82,0.00,OVC,OVC,0.00,WeatherDisplay:10.37,2013-04-10 06:37:00,
2013-04-10 01:42:00,42.0,36.6,29.84,East,92,13.8,13.8,81,0.00,OVC,OVC,0.00,WeatherDisplay:10.37,2013-04-10 06:42:00,
2013-04-10 01:47:00,41.8,36.7,29.84,ESE,109,9.0,9.0,82,0.00,OVC,OVC,0.00,WeatherDisplay:10.37,2013-04-10 06:47:00,
2013-04-10 01:52:00,41.6,36.5,29.86,East,83,6.0,6.0,82,0.00,OVC,OVC,0.00,WeatherDisplay:10.37,2013-04-10 06:52:00,
2013-04-10 01:58:00,41.4,36.3,29.85,ENE,63,11.5,11.5,82,0.00,OVC,OVC,0.00,WeatherDisplay:10.37,2013-04-10 06:58:00,
2013-04-10 02:03:00,41.2,36.4,29.83,ENE,65,4.6,4.6,83,0.00,OVC,OVC,0.00,WeatherDisplay:10.37,2013-04-10 07:03:00,
2013-04-10 02:08:00,41.1,36.3,29.82,SE,137,4.6,4.6,83,0.00,OVC,OVC,0.00,WeatherDisplay:10.37,2013-04-10 07:08:00,
2013-04-10 02:13:00,41.1,36.3,29.83,ENE,73,4.0,4.0,83,0.00,OVC,OVC,0.00,WeatherDisplay:10.37,2013-04-10 07:13:00,
2013-04-10 02:18:00,41.2,36.4,29.90,NW,325,10.4,10.4,83,0.00,OVC,OVC,0.00,WeatherDisplay:10.37,2013-04-10 07:18:00,
2013-04-10 02:24:00,41.4,36.6,29.90,ENE,76,4.6,4.6,83,0.00,OVC,OVC,0.00,WeatherDisplay:10.37,2013-04-10 07:24:00,
2013-04-10 02:29:00,41.4,36.6,29.93,SSW,213,4.0,4.0,83,0.00,OVC,OVC,0.00,WeatherDisplay:10.37,2013-04-10 07:29:00,
2013-04-10 02:34:00,41.4,36.9,29.89,ENE,66,3.5,3.5,84,0.00,OVC,OVC,0.00,WeatherDisplay:10.37,2013-04-10 07:34:00,
2013-04-10 02:39:00,41.4,36.9,29.89,ENE,66,3.5,3.5,84,0.00,OVC,OVC,0.00,WeatherDisplay:10.37,2013-04-10 07:39:00,
2013-04-10 02:45:00,41.3,36.8,29.89,ENE,66,2.3,2.3,84,0.00,OVC,OVC,0.00,WeatherDisplay:10.37,2013-04-10 07:45:00,
2013-04-10 02:50:00,41.4,36.9,29.90,ENE,66,0.0,0.0,84,0.00,OVC,OVC,0.00,WeatherDisplay:10.37,2013-04-10 07:50:00,
2013-04-10 02:55:00,41.4,36.9,29.92,ENE,66,0.0,0.0,84,0.00,OVC,OVC,0.00,WeatherDisplay:10.37,2013-04-10 07:55:00,
2013-04-10 03:00:00,41.5,37.0,29.94,ENE,66,1.2,1.2,84,0.00,OVC,OVC,0.00,WeatherDisplay:10.37,2013-04-10 08:00:00,
2013-04-10 03:05:00,41.6,37.1,29.95,WNW,282,3.0,3.0,84,0.00,OVC,OVC,0.00,WeatherDisplay:10.37,2013-04-10 08:05:00,
2013-04-10 03:10:00,41.6,37.1,29.97,West,273,3.5,3.5,84,0.00,OVC,OVC,0.00,WeatherDisplay:10.37,2013-04-10 08:10:00,
2013-04-10 03:16:00,41.7,37.2,29.98,West,275,4.6,4.6,84,0.00,OVC,OVC,0.00,WeatherDisplay:10.37,2013-04-10 08:16:00,
2013-04-10 03:21:00,41.7,37.2,29.97,West,271,4.6,4.6,84,0.00,OVC,OVC,0.00,WeatherDisplay:10.37,2013-04-10 08:21:00,
2013-04-10 03:26:00,41.7,37.2,29.95,West,280,3.5,3.5,84,0.00,OVC,OVC,0.00,WeatherDisplay:10.37,2013-04-10 08:26:00,
2013-04-10 03:32:00,41.6,37.1,29.94,West,280,2.0,2.0,84,0.00,OVC,OVC,0.00,WeatherDisplay:10.37,2013-04-10 08:32:00,
2013-04-10 03:37:00,41.6,37.1,29.95,WNW,301,3.5,3.5,84,0.00,OVC,OVC,0.00,WeatherDisplay:10.37,2013-04-10 08:37:00,
2013-04-10 03:42:00,41.6,37.1,29.94,NW,304,3.5,3.5,84,0.00,OVC,OVC,0.00,WeatherDisplay:10.37,2013-04-10 08:42:00,
2013-04-10 03:47:00,41.6,37.1,29.93,North,11,5.8,5.8,84,0.00,OVC,OVC,0.00,WeatherDisplay:10.37,2013-04-10 08:47:00,
2013-04-10 03:52:00,41.6,37.1,29.93,NE,47,3.0,3.0,84,0.00,OVC,OVC,0.00,WeatherDisplay:10.37,2013-04-10 08:52:00,
2013-04-10 03:58:00,41.5,37.3,29.92,North,350,6.9,6.9,85,0.00,OVC,OVC,0.00,WeatherDisplay:10.37,2013-04-10 08:58:00,
2013-04-10 04:03:00,41.3,37.1,29.92,North,360,4.6,4.6,85,0.00,OVC,OVC,0.00,WeatherDisplay:10.37,2013-04-10 09:03:00,
2013-04-10 04:08:00,41.1,36.6,29.90,ENE,76,5.0,5.0,84,0.00,OVC,OVC,0.00,WeatherDisplay:10.37,2013-04-10 09:08:00,
2013-04-10 04:13:00,40.9,36.7,29.86,NE,41,8.1,8.1,85,0.00,OVC,OVC,0.00,WeatherDisplay:10.37,2013-04-10 09:13:00,
2013-04-10 04:19:00,40.7,36.5,29.84,East,84,6.0,6.0,85,0.00,OVC,OVC,0.00,WeatherDisplay:10.37,2013-04-10 09:19:00,
2013-04-10 04:24:00,40.5,36.0,29.79,ENE,62,15.0,15.0,84,0.00,OVC,OVC,0.00,WeatherDisplay:10.37,2013-04-10 09:24:00,
2013-04-10 04:29:00,40.1,36.0,29.79,NE,53,15.0,15.0,85,0.00,OVC,OVC,0.00,WeatherDisplay:10.37,2013-04-10 09:29:00,
2013-04-10 04:34:00,40.0,35.6,29.80,NE,52,11.5,11.5,84,0.00,OVC,OVC,0.00,WeatherDisplay:10.37,2013-04-10 09:34:00,
2013-04-10 04:39:00,40.0,35.9,29.81,ENE,72,3.5,3.5,85,0.00,OVC,OVC,0.00,WeatherDisplay:10.37,2013-04-10 09:39:00,
2013-04-10 04:44:00,39.9,35.8,29.80,East,86,5.8,5.8,85,0.00,OVC,OVC,0.00,WeatherDisplay:10.37,2013-04-10 09:44:00,
2013-04-10 04:50:00,39.9,35.8,29.79,NNE,17,6.9,6.9,85,0.00,OVC,OVC,0.00,WeatherDisplay:10.37,2013-04-10 09:50:00,
2013-04-10 04:55:00,39.8,35.7,29.78,NNE,30,3.5,3.5,85,0.00,OVC,OVC,0.00,WeatherDisplay:10.37,2013-04-10 09:55:00,
2013-04-10 05:00:00,39.7,35.6,29.77,ENE,65,11.5,11.5,85,0.00,OVC,OVC,0.00,WeatherDisplay:10.37,2013-04-10 10:00:00,
2013-04-10 05:05:00,39.6,35.5,29.77,NNE,14,9.2,9.2,85,0.00,OVC,OVC,0.00,WeatherDisplay:10.37,2013-04-10 10:05:00,
2013-04-10 05:10:00,39.5,35.4,29.77,NE,45,10.4,10.4,85,0.00,OVC,OVC,0.00,WeatherDisplay:10.37,2013-04-10 10:10:00,
2013-04-10 05:16:00,39.5,35.4,29.75,ENE,71,11.5,11.5,85,0.00,OVC,OVC,0.00,WeatherDisplay:10.37,2013-04-10 10:16:00,
2013-04-10 05:21:00,39.3,34.9,29.74,ENE,63,11.5,11.5,84,0.00,OVC,OVC,0.00,WeatherDisplay:10.37,2013-04-10 10:21:00,
2013-04-10 05:26:00,39.3,34.9,29.76,NNE,26,4.6,4.6,84,0.00,OVC,OVC,0.00,WeatherDisplay:10.37,2013-04-10 10:26:00,
2013-04-10 05:31:00,39.2,34.8,29.76,ENE,70,13.8,13.8,84,0.00,OVC,OVC,0.00,WeatherDisplay:10.37,2013-04-10 10:31:00,
2013-04-10 05:37:00,39.1,34.7,29.76,ESE,118,11.5,11.5,84,0.00,OVC,OVC,0.00,WeatherDisplay:10.37,2013-04-10 10:37:00,
2013-04-10 05:42:00,39.0,34.6,29.76,NE,41,10.4,10.4,84,0.00,OVC,OVC,0.00,WeatherDisplay:10.37,2013-04-10 10:42:00,
2013-04-10 05:48:00,39.0,34.6,29.77,ENE,64,5.8,5.8,84,0.00,OVC,OVC,0.00,WeatherDisplay:10.37,2013-04-10 10:48:00,
2013-04-10 05:53:00,39.0,34.6,29.76,ENE,69,4.6,4.6,84,0.00,OVC,OVC,0.00,WeatherDisplay:10.37,2013-04-10 10:53:00,
2013-04-10 05:58:00,38.9,34.5,29.77,ENE,68,11.0,11.0,84,0.00,OVC,OVC,0.00,WeatherDisplay:10.37,2013-04-10 10:58:00,
2013-04-10 06:03:00,38.9,34.5,29.79,ENE,69,4.6,4.6,84,0.00,OVC,OVC,0.00,WeatherDisplay:10.37,2013-04-10 11:03:00,
2013-04-10 06:08:00,38.9,34.5,29.80,ENE,66,3.0,3.0,84,0.00,OVC,OVC,0.00,WeatherDisplay:10.37,2013-04-10 11:08:00,
2013-04-10 06:14:00,39.0,34.6,29.85,NNE,23,3.5,3.5,84,0.00,OVC,OVC,0.00,WeatherDisplay:10.37,2013-04-10 11:14:00,
2013-04-10 06:19:00,39.1,34.7,29.86,West,259,0.0,0.0,84,0.00,OVC,OVC,0.00,WeatherDisplay:10.37,2013-04-10 11:19:00,
2013-04-10 06:24:00,39.2,34.8,29.88,West,259,2.3,2.3,84,0.00,OVC,OVC,0.00,WeatherDisplay:10.37,2013-04-10 11:24:00,
2013-04-10 06:29:00,39.3,34.9,29.90,West,259,2.3,2.3,84,0.00,OVC,OVC,0.00,WeatherDisplay:10.37,2013-04-10 11:29:00,
2013-04-10 06:34:00,39.4,35.0,29.92,West,259,2.3,2.3,84,0.00,OVC,OVC,0.00,WeatherDisplay:10.37,2013-04-10 11:34:00,
2013-04-10 06:40:00,39.5,35.1,29.94,WSW,257,2.3,0.0,84,0.00,OVC,OVC,0.00,WeatherDisplay:10.37,2013-04-10 11:40:00,
2013-04-10 06:45:00,39.6,35.2,29.96,WSW,257,3.5,3.5,84,0.00,OVC,OVC,0.00,WeatherDisplay:10.37,2013-04-10 11:45:00,
2013-04-10 06:50:00,39.7,35.3,29.97,WSW,257,0.0,0.0,84,0.00,OVC,OVC,0.00,WeatherDisplay:10.37,2013-04-10 11:50:00,
2013-04-10 06:55:00,39.8,35.4,29.97,WSW,252,1.2,1.2,84,0.00,OVC,OVC,0.00,WeatherDisplay:10.37,2013-04-10 11:55:00,
2013-04-10 07:00:00,39.9,35.5,29.97,WSW,252,0.0,0.0,84,0.00,OVC,OVC,0.00,WeatherDisplay:10.37,2013-04-10 12:00:00,
2013-04-10 07:05:00,40.0,35.6,29.96,WSW,252,0.0,0.0,84,0.00,OVC,OVC,0.00,WeatherDisplay:10.37,2013-04-10 12:05:00,
2013-04-10 07:10:00,40.2,35.8,29.93,WSW,252,2.3,2.3,84,0.00,OVC,OVC,0.00,WeatherDisplay:10.37,2013-04-10 12:10:00,
2013-04-10 07:15:00,40.2,35.8,29.92,WSW,252,2.3,2.3,84,0.00,OVC,OVC,0.00,WeatherDisplay:10.37,2013-04-10 12:15:00,
2013-04-10 07:20:00,40.1,36.0,29.91,ENE,73,3.5,3.5,85,0.00,OVC,OVC,0.00,WeatherDisplay:10.37,2013-04-10 12:20:00,
2013-04-10 07:25:00,40.1,36.0,29.92,ENE,68,3.5,3.5,85,0.00,OVC,OVC,0.00,WeatherDisplay:10.37,2013-04-10 12:25:00,
2013-04-10 07:31:00,40.1,36.0,29.92,ENE,74,4.6,4.6,85,0.00,OVC,OVC,0.00,WeatherDisplay:10.37,2013-04-10 12:31:00,
2013-04-10 07:36:00,40.2,36.1,29.91,ENE,76,3.5,3.5,85,0.00,OVC,OVC,0.00,WeatherDisplay:10.37,2013-04-10 12:36:00,
2013-04-10 07:41:00,40.3,36.1,29.90,ENE,66,3.5,3.5,85,0.00,OVC,OVC,0.00,WeatherDisplay:10.37,2013-04-10 12:41:00,
2013-04-10 07:47:00,40.3,36.1,29.90,NE,53,7.0,7.0,85,0.00,OVC,OVC,0.00,WeatherDisplay:10.37,2013-04-10 12:47:00,
2013-04-10 07:52:00,40.3,36.1,29.88,ENE,63,5.8,5.8,85,0.00,OVC,OVC,0.00,WeatherDisplay:10.37,2013-04-10 12:52:00,
2013-04-10 07:57:00,40.3,36.1,29.86,NE,46,3.5,3.5,85,0.00,OVC,OVC,0.00,WeatherDisplay:10.37,2013-04-10 12:57:00,
2013-04-10 08:02:00,40.2,36.1,29.85,ENE,63,4.6,4.6,85,0.00,OVC,OVC,0.00,WeatherDisplay:10.37,2013-04-10 13:02:00,
2013-04-10 08:08:00,40.1,36.0,29.85,NE,40,4.6,4.6,85,0.00,OVC,OVC,0.00,WeatherDisplay:10.37,2013-04-10 13:08:00,
2013-04-10 08:13:00,40.0,35.9,29.85,ENE,67,10.4,10.4,85,0.00,OVC,OVC,0.00,WeatherDisplay:10.37,2013-04-10 13:13:00,
2013-04-10 08:18:00,40.0,35.9,29.85,North,5,9.2,9.2,85,0.00,OVC,OVC,0.00,WeatherDisplay:10.37,2013-04-10 13:18:00,
2013-04-10 08:23:00,39.9,35.8,29.87,NNE,12,6.9,6.9,85,0.00,OVC,OVC,0.00,WeatherDisplay:10.37,2013-04-10 13:23:00,
2013-04-10 08:29:00,39.9,35.8,29.89,NE,51,0.0,0.0,85,0.00,OVC,OVC,0.00,WeatherDisplay:10.37,2013-04-10 13:29:00,
2013-04-10 08:34:00,39.9,35.8,29.90,NE,51,0.0,0.0,85,0.00,OVC,OVC,0.00,WeatherDisplay:10.37,2013-04-10 13:34:00,
2013-04-10 08:39:00,39.8,35.7,29.91,NE,51,2.3,2.3,85,0.00,OVC,OVC,0.00,WeatherDisplay:10.37,2013-04-10 13:39:00,
2013-04-10 08:44:00,39.9,35.8,29.92,NE,51,2.3,2.3,85,0.00,OVC,OVC,0.00,WeatherDisplay:10.37,2013-04-10 13:44:00,
2013-04-10 08:49:00,40.0,35.9,29.92,NE,51,3.5,3.5,85,0.00,OVC,OVC,0.00,WeatherDisplay:10.37,2013-04-10 13:49:00,
2013-04-10 08:54:00,39.9,35.8,29.92,NE,51,2.3,2.3,85,0.00,OVC,OVC,0.00,WeatherDisplay:10.37,2013-04-10 13:54:00,
2013-04-10 08:59:00,39.8,35.4,29.91,NNE,22,3.5,3.5,84,0.00,OVC,OVC,0.00,WeatherDisplay:10.37,2013-04-10 13:59:00,
2013-04-10 09:04:00,39.8,35.4,29.91,North,355,3.5,3.5,84,0.00,OVC,OVC,0.00,WeatherDisplay:10.37,2013-04-10 14:04:00,
2013-04-10 09:10:00,39.8,35.4,29.91,NNE,12,3.5,0.0,84,0.00,OVC,OVC,0.00,WeatherDisplay:10.37,2013-04-10 14:10:00,
2013-04-10 09:15:00,39.7,35.3,29.92,North,5,5.8,5.8,84,0.00,OVC,OVC,0.00,WeatherDisplay:10.37,2013-04-10 14:15:00,
2013-04-10 09:20:00,39.7,35.3,29.92,ENE,62,4.6,4.6,84,0.00,OVC,OVC,0.00,WeatherDisplay:10.37,2013-04-10 14:20:00,
2013-04-10 09:25:00,39.8,35.4,29.93,NE,39,3.5,3.5,84,0.00,OVC,OVC,0.00,WeatherDisplay:10.37,2013-04-10 14:25:00,
2013-04-10 09:30:00,39.9,35.8,29.94,NNE,15,3.5,3.5,85,0.00,OVC,OVC,0.00,WeatherDisplay:10.37,2013-04-10 14:30:00,
2013-04-10 09:35:00,39.9,35.5,29.94,NE,44,3.5,3.5,84,0.00,OVC,OVC,0.00,WeatherDisplay:10.37,2013-04-10 14:35:00,
2013-04-10 09:41:00,39.9,35.5,29.93,NE,44,3.5,3.5,84,0.00,OVC,OVC,0.00,WeatherDisplay:10.37,2013-04-10 14:41:00,
2013-04-10 09:47:00,39.8,35.4,29.91,ENE,70,4.6,4.6,84,0.00,OVC,OVC,0.00,WeatherDisplay:10.37,2013-04-10 14:47:00,
2013-04-10 09:52:00,39.7,35.3,29.92,NE,52,6.9,6.9,84,0.00,OVC,OVC,0.00,WeatherDisplay:10.37,2013-04-10 14:52:00,
2013-04-10 09:57:00,39.7,35.3,29.94,NNE,16,4.6,4.6,84,0.00,OVC,OVC,0.00,WeatherDisplay:10.37,2013-04-10 14:57:00,
2013-04-10 10:02:00,39.6,35.2,29.94,North,5,2.0,2.0,84,0.00,OVC,OVC,0.00,WeatherDisplay:10.37,2013-04-10 15:02:00,
2013-04-10 10:07:00,39.6,35.2,29.95,North,5,2.0,2.0,84,0.00,OVC,OVC,0.00,WeatherDisplay:10.37,2013-04-10 15:07:00,
2013-04-10 10:13:00,39.6,35.2,29.94,NE,56,3.5,3.5,84,0.00,OVC,OVC,0.00,WeatherDisplay:10.37,2013-04-10 15:13:00,
2013-04-10 10:18:00,39.7,35.3,29.94,NE,34,6.9,6.9,84,0.00,OVC,OVC,0.00,WeatherDisplay:10.37,2013-04-10 15:18:00,
2013-04-10 10:23:00,40.0,35.6,29.93,NE,50,4.6,4.6,84,0.00,OVC,OVC,0.00,WeatherDisplay:10.37,2013-04-10 15:23:00,
2013-04-10 10:28:00,40.2,35.8,29.92,NE,42,4.6,4.6,84,0.00,OVC,OVC,0.00,WeatherDisplay:10.37,2013-04-10 15:28:00,
2013-04-10 10:33:00,40.2,35.8,29.92,ENE,59,5.8,5.8,84,0.00,OVC,OVC,0.00,WeatherDisplay:10.37,2013-04-10 15:33:00,
2013-04-10 10:38:00,40.1,35.7,29.92,ENE,59,4.6,4.6,84,0.00,OVC,OVC,0.00,WeatherDisplay:10.37,2013-04-10 15:38:00,
2013-04-10 10:43:00,39.9,35.5,29.91,ENE,75,4.6,4.6,84,0.00,OVC,OVC,0.00,WeatherDisplay:10.37,2013-04-10 15:43:00,
2013-04-10 10:49:00,39.8,35.4,29.92,ENE,69,5.8,5.8,84,0.00,OVC,OVC,0.00,WeatherDisplay:10.37,2013-04-10 15:49:00,
2013-04-10 10:54:00,39.8,35.4,29.93,ENE,74,3.5,3.5,84,0.00,OVC,OVC,0.00,WeatherDisplay:10.37,2013-04-10 15:54:00,
2013-04-10 10:59:00,39.8,35.4,29.94,ENE,72,4.6,4.6,84,0.00,OVC,OVC,0.00,WeatherDisplay:10.37,2013-04-10 15:59:00,
2013-04-10 11:04:00,39.9,35.5,29.94,NE,44,3.5,3.5,84,0.00,OVC,OVC,0.00,WeatherDisplay:10.37,2013-04-10 16:04:00,
2013-04-10 11:10:00,39.9,35.2,29.94,ENE,62,3.5,3.5,83,0.00,OVC,OVC,0.00,WeatherDisplay:10.37,2013-04-10 16:10:00,
2013-04-10 11:15:00,39.9,35.2,29.94,NE,37,3.5,3.5,83,0.00,OVC,OVC,0.00,WeatherDisplay:10.37,2013-04-10 16:15:00,
2013-04-10 11:20:00,39.8,35.1,29.93,ENE,65,1.2,0.0,83,0.00,OVC,OVC,0.00,WeatherDisplay:10.37,2013-04-10 16:20:00,
2013-04-10 11:25:00,39.7,35.0,29.92,East,80,6.0,6.0,83,0.00,OVC,OVC,0.00,WeatherDisplay:10.37,2013-04-10 16:25:00,
2013-04-10 11:30:00,39.6,34.9,29.92,ENE,75,2.3,2.3,83,0.00,OVC,OVC,0.00,WeatherDisplay:10.37,2013-04-10 16:30:00,
2013-04-10 11:36:00,39.7,35.0,29.93,ENE,72,5.8,5.8,83,0.00,OVC,OVC,0.00,WeatherDisplay:10.37,2013-04-10 16:36:00,
2013-04-10 11:41:00,39.7,35.0,29.93,East,86,6.9,6.9,83,0.00,OVC,OVC,0.00,WeatherDisplay:10.37,2013-04-10 16:41:00,
2013-04-10 11:47:00,39.6,34.9,29.94,ENE,67,3.5,3.5,83,0.00,OVC,OVC,0.00,WeatherDisplay:10.37,2013-04-10 16:47:00,
2013-04-10 11:52:00,39.8,35.1,29.95,ENE,78,0.0,0.0,83,0.00,OVC,OVC,0.00,WeatherDisplay:10.37,2013-04-10 16:52:00,
2013-04-10 11:57:00,39.8,35.1,29.95,ENE,70,5.8,5.8,83,0.00,OVC,OVC,0.00,WeatherDisplay:10.37,2013-04-10 16:57:00,
2013-04-10 12:03:00,39.8,35.1,29.95,ENE,70,3.5,3.5,83,0.00,OVC,OVC,0.00,WeatherDisplay:10.37,2013-04-10 17:03:00,
2013-04-10 12:08:00,39.8,35.1,29.95,East,84,4.6,4.6,83,0.00,OVC,OVC,0.00,WeatherDisplay:10.37,2013-04-10 17:08:00,
2013-04-10 12:13:00,39.8,35.1,29.94,ENE,69,3.5,3.5,83,0.00,OVC,OVC,0.00,WeatherDisplay:10.37,2013-04-10 17:13:00,
2013-04-10 12:18:00,39.8,35.1,29.94,ENE,57,5.8,5.8,83,0.00,OVC,OVC,0.00,WeatherDisplay:10.37,2013-04-10 17:18:00,
2013-04-10 12:23:00,39.8,35.1,29.94,East,80,4.6,4.6,83,0.00,OVC,OVC,0.00,WeatherDisplay:10.37,2013-04-10 17:23:00,
2013-04-10 12:29:00,39.9,35.2,29.94,ENE,70,4.0,4.0,83,0.00,OVC,OVC,0.00,WeatherDisplay:10.37,2013-04-10 17:29:00,
2013-04-10 12:34:00,40.0,35.3,29.94,ESE,104,3.5,3.5,83,0.00,OVC,OVC,0.00,WeatherDisplay:10.37,2013-04-10 17:34:00,
2013-04-10 12:39:00,40.0,35.3,29.94,ENE,72,3.5,3.6,83,0.00,OVC,OVC,0.00,WeatherDisplay:10.37,2013-04-10 17:39:00,
2013-04-10 12:44:00,40.0,35.3,29.94,ENE,71,3.5,3.5,83,0.00,OVC,OVC,0.00,WeatherDisplay:10.37,2013-04-10 17:44:00,
2013-04-10 12:49:00,40.0,35.3,29.94,ESE,103,5.8,5.8,83,0.00,OVC,OVC,0.00,WeatherDisplay:10.37,2013-04-10 17:49:00,
2013-04-10 12:54:00,40.0,35.3,29.95,ENE,76,4.0,4.0,83,0.00,OVC,OVC,0.00,WeatherDisplay:10.37,2013-04-10 17:54:00,
2013-04-10 12:59:00,40.0,35.3,29.95,ESE,111,3.5,3.5,83,0.00,OVC,OVC,0.00,WeatherDisplay:10.37,2013-04-10 17:59:00,
2013-04-10 13:04:00,40.1,35.4,29.94,ENE,72,0.0,0.0,83,0.00,OVC,OVC,0.00,WeatherDisplay:10.37,2013-04-10 18:04:00,
2013-04-10 13:09:00,40.2,35.4,29.93,ENE,68,4.6,4.6,83,0.00,OVC,OVC,0.00,WeatherDisplay:10.37,2013-04-10 18:09:00,
2013-04-10 13:14:00,40.1,35.4,29.92,ENE,77,4.6,4.6,83,0.00,OVC,OVC,0.00,WeatherDisplay:10.37,2013-04-10 18:14:00,
2013-04-10 13:19:00,40.1,35.4,29.92,ENE,75,2.3,2.3,83,0.00,OVC,OVC,0.00,WeatherDisplay:10.37,2013-04-10 18:19:00,
2013-04-10 13:24:00,40.3,35.5,29.92,ENE,75,3.5,3.5,83,0.00,OVC,OVC,0.00,WeatherDisplay:10.37,2013-04-10 18:24:00,
2013-04-10 13:30:00,40.4,35.6,29.91,ENE,71,3.5,3.5,83,0.00,OVC,OVC,0.00,WeatherDisplay:10.37,2013-04-10 18:30:00,
2013-04-10 13:35:00,40.5,35.7,29.91,ENE,71,3.5,3.5,83,0.00,OVC,OVC,0.00,WeatherDisplay:10.37,2013-04-10 18:35:00,
2013-04-10 13:40:00,40.4,35.6,29.90,ENE,78,9.2,9.2,83,0.00,OVC,OVC,0.00,WeatherDisplay:10.37,2013-04-10 18:40:00,
2013-04-10 13:45:00,40.5,35.7,29.91,East,92,4.6,4.6,83,0.00,OVC,OVC,0.00,WeatherDisplay:10.37,2013-04-10 18:45:00,
2013-04-10 13:50:00,40.4,35.6,29.90,ESE,115,4.6,4.6,83,0.00,OVC,OVC,0.00,WeatherDisplay:10.37,2013-04-10 18:50:00,
2013-04-10 13:56:00,40.4,35.6,29.90,East,79,4.0,4.0,83,0.00,OVC,OVC,0.00,WeatherDisplay:10.37,2013-04-10 18:56:00,
2013-04-10 14:01:00,40.5,35.7,29.89,ENE,74,5.0,5.0,83,0.00,OVC,OVC,0.00,WeatherDisplay:10.37,2013-04-10 19:01:00,
2013-04-10 14:06:00,40.6,35.8,29.88,ENE,62,11.5,11.5,83,0.00,OVC,OVC,0.00,WeatherDisplay:10.37,2013-04-10 19:06:00,
2013-04-10 14:12:00,40.4,35.6,29.89,East,84,5.8,5.8,83,0.00,OVC,OVC,0.00,WeatherDisplay:10.37,2013-04-10 19:12:00,
2013-04-10 14:17:00,40.5,35.7,29.89,ENE,67,3.5,3.5,83,0.00,OVC,OVC,0.00,WeatherDisplay:10.37,2013-04-10 19:17:00,
2013-04-10 14:22:00,40.7,35.9,29.89,ENE,71,3.5,3.5,83,0.00,OVC,OVC,0.00,WeatherDisplay:10.37,2013-04-10 19:22:00,
2013-04-10 14:27:00,40.8,36.0,29.91,NE,44,4.6,4.6,83,0.00,OVC,OVC,0.00,WeatherDisplay:10.37,2013-04-10 19:27:00,
2013-04-10 14:32:00,40.9,36.1,29.91,North,349,3.5,0.0,83,0.00,OVC,OVC,0.00,WeatherDisplay:10.37,2013-04-10 19:32:00,
2013-04-10 14:37:00,41.0,36.2,29.91,NNE,22,3.5,3.5,83,0.00,OVC,OVC,0.00,WeatherDisplay:10.37,2013-04-10 19:37:00,
2013-04-10 14:42:00,40.9,36.1,29.91,NE,51,2.3,2.3,83,0.00,OVC,OVC,0.00,WeatherDisplay:10.37,2013-04-10 19:42:00,
2013-04-10 14:48:00,40.9,36.1,29.91,NE,51,3.5,3.5,83,0.00,OVC,OVC,0.00,WeatherDisplay:10.37,2013-04-10 19:48:00,
2013-04-10 14:53:00,41.1,36.3,29.91,NE,45,3.5,3.5,83,0.00,OVC,OVC,0.00,WeatherDisplay:10.37,2013-04-10 19:53:00,
2013-04-10 14:58:00,41.1,36.3,29.91,North,11,2.3,2.5,83,0.00,OVC,OVC,0.00,WeatherDisplay:10.37,2013-04-10 19:58:00,
2013-04-10 15:03:00,40.9,36.1,29.90,North,5,4.6,4.6,83,0.00,OVC,OVC,0.00,WeatherDisplay:10.37,2013-04-10 20:03:00,
2013-04-10 15:08:00,41.0,36.2,29.89,NNE,24,3.5,3.5,83,0.00,OVC,OVC,0.00,WeatherDisplay:10.37,2013-04-10 20:08:00,
2013-04-10 15:13:00,40.9,36.1,29.88,NE,48,3.5,3.5,83,0.00,OVC,OVC,0.00,WeatherDisplay:10.37,2013-04-10 20:13:00,
2013-04-10 15:18:00,41.1,36.6,29.89,North,5,10.4,10.4,84,0.00,OVC,OVC,0.00,WeatherDisplay:10.37,2013-04-10 20:18:00,
2013-04-10 15:23:00,41.1,36.6,29.87,NNE,33,4.6,4.6,84,0.00,OVC,OVC,0.00,WeatherDisplay:10.37,2013-04-10 20:23:00,
2013-04-10 15:29:00,40.6,35.8,29.90,NNW,338,4.6,4.6,83,0.00,OVC,OVC,0.00,WeatherDisplay:10.37,2013-04-10 20:29:00,
2013-04-10 15:34:00,40.2,35.4,29.90,NNW,345,9.2,9.2,83,0.00,OVC,OVC,0.00,WeatherDisplay:10.37,2013-04-10 20:34:00,
2013-04-10 15:39:00,40.1,35.7,29.90,NNE,16,4.6,4.6,84,0.00,OVC,OVC,0.00,WeatherDisplay:10.37,2013-04-10 20:39:00,
2013-04-10 15:44:00,39.9,35.2,29.91,NE,40,2.3,2.3,83,0.00,OVC,OVC,0.00,WeatherDisplay:10.37,2013-04-10 20:44:00,
2013-04-10 15:49:00,40.0,35.3,29.90,NNE,31,3.5,3.5,83,0.00,OVC,OVC,0.00,WeatherDisplay:10.37,2013-04-10 20:49:00,
2013-04-10 15:54:00,40.0,35.6,29.90,North,360,3.5,3.5,84,0.00,OVC,OVC,0.00,WeatherDisplay:10.37,2013-04-10 20:54:00,
2013-04-10 16:00:00,40.2,35.8,29.90,NNE,15,3.5,3.5,84,0.00,OVC,OVC,0.00,WeatherDisplay:10.37,2013-04-10 21:00:00,
2013-04-10 16:05:00,40.4,35.9,29.89,North,10,5.8,5.8,84,0.00,OVC,OVC,0.00,WeatherDisplay:10.37,2013-04-10 21:05:00,
2013-04-10 16:10:00,40.4,35.9,29.88,NE,36,5.8,5.8,84,0.00,CLR,CLR,0.00,WeatherDisplay:10.37,2013-04-10 21:10:00,
2013-04-10 16:15:00,40.6,36.1,29.89,NE,34,2.3,2.3,84,0.00,OVC,OVC,0.00,WeatherDisplay:10.37,2013-04-10 21:15:00,
2013-04-10 16:20:00,40.5,35.7,29.88,NNE,28,4.6,4.6,83,0.00,OVC,OVC,0.00,WeatherDisplay:10.37,2013-04-10 21:20:00,
2013-04-10 16:26:00,40.5,35.7,29.88,East,84,2.3,0.0,83,0.00,OVC,OVC,0.00,WeatherDisplay:10.37,2013-04-10 21:26:00,
2013-04-10 16:31:00,40.5,35.7,29.87,NE,38,4.6,4.6,83,0.00,OVC,OVC,0.00,WeatherDisplay:10.37,2013-04-10 21:31:00,
2013-04-10 16:36:00,40.6,35.8,29.87,North,10,5.0,5.0,83,0.00,OVC,OVC,0.00,WeatherDisplay:10.37,2013-04-10 21:36:00,
2013-04-10 16:41:00,40.5,35.7,29.88,NNE,16,6.0,6.0,83,0.00,OVC,OVC,0.00,WeatherDisplay:10.37,2013-04-10 21:41:00,
2013-04-10 16:46:00,40.5,35.7,29.87,ENE,73,5.0,5.0,83,0.00,OVC,OVC,0.00,WeatherDisplay:10.37,2013-04-10 21:46:00,
2013-04-10 16:52:00,40.3,35.2,29.87,East,84,7.0,7.0,82,0.00,OVC,OVC,0.00,WeatherDisplay:10.37,2013-04-10 21:52:00,
2013-04-10 16:57:00,40.2,35.1,29.87,East,79,6.9,6.9,82,0.00,OVC,OVC,0.00,WeatherDisplay:10.37,2013-04-10 21:57:00,
2013-04-10 17:02:00,40.2,35.1,29.87,ENE,71,4.6,4.6,82,0.00,OVC,OVC,0.00,WeatherDisplay:10.37,2013-04-10 22:02:00,
2013-04-10 17:08:00,40.3,35.2,29.87,ENE,72,3.5,3.5,82,0.00,OVC,OVC,0.00,WeatherDisplay:10.37,2013-04-10 22:08:00,
2013-04-10 17:13:00,40.4,35.3,29.87,ENE,63,3.5,3.5,82,0.00,OVC,OVC,0.00,WeatherDisplay:10.37,2013-04-10 22:13:00,
2013-04-10 17:18:00,40.4,35.3,29.88,NE,34,3.5,3.5,82,0.00,OVC,OVC,0.00,WeatherDisplay:10.37,2013-04-10 22:18:00,
2013-04-10 17:23:00,40.3,34.9,29.88,ENE,70,2.0,2.0,81,0.00,OVC,OVC,0.00,WeatherDisplay:10.37,2013-04-10 22:23:00,
2013-04-10 17:29:00,40.4,35.3,29.88,East,90,3.5,3.5,82,0.00,OVC,OVC,0.00,WeatherDisplay:10.37,2013-04-10 22:29:00,
2013-04-10 17:34:00,40.3,35.2,29.87,NE,40,3.5,3.5,82,0.00,OVC,OVC,0.00,WeatherDisplay:10.37,2013-04-10 22:34:00,
2013-04-10 17:39:00,40.4,35.3,29.86,NNE,32,4.0,4.0,82,0.00,OVC,OVC,0.00,WeatherDisplay:10.37,2013-04-10 22:39:00,
2013-04-10 17:44:00,40.4,35.0,29.85,East,88,5.8,5.8,81,0.00,OVC,OVC,0.00,WeatherDisplay:10.37,2013-04-10 22:44:00,
2013-04-10 17:49:00,40.3,34.9,29.84,NNE,32,4.6,4.6,81,0.00,OVC,OVC,0.00,WeatherDisplay:10.37,2013-04-10 22:49:00,
2013-04-10 17:54:00,40.4,35.0,29.84,NNE,26,5.8,5.8,81,0.00,OVC,OVC,0.00,WeatherDisplay:10.37,2013-04-10 22:54:00,
2013-04-10 17:59:00,40.4,35.0,29.84,ENE,74,3.5,3.5,81,0.00,OVC,OVC,0.00,WeatherDisplay:10.37,2013-04-10 22:59:00,
2013-04-10 18:05:00,40.4,35.0,29.84,ENE,60,3.5,3.5,81,0.00,OVC,OVC,0.00,WeatherDisplay:10.37,2013-04-10 23:05:00,
2013-04-10 18:10:00,40.4,35.0,29.83,NE,45,6.9,6.9,81,0.00,OVC,OVC,0.00,WeatherDisplay:10.37,2013-04-10 23:10:00,
2013-04-10 18:15:00,40.3,34.9,29.82,NNE,16,9.0,9.0,81,0.00,OVC,OVC,0.00,WeatherDisplay:10.37,2013-04-10 23:15:00,
2013-04-10 18:20:00,40.2,34.8,29.82,NE,40,9.2,9.2,81,0.00,OVC,OVC,0.00,WeatherDisplay:10.37,2013-04-10 23:20:00,
2013-04-10 18:25:00,40.2,34.8,29.81,NE,40,9.2,9.2,81,0.00,OVC,OVC,0.00,WeatherDisplay:10.37,2013-04-10 23:25:00,
2013-04-10 18:30:00,40.1,34.7,29.80,ENE,57,6.9,6.9,81,0.00,OVC,OVC,0.00,WeatherDisplay:10.37,2013-04-10 23:30:00,
2013-04-10 18:36:00,40.1,34.7,29.79,NE,44,11.5,11.5,81,0.00,OVC,OVC,0.00,WeatherDisplay:10.37,2013-04-10 23:36:00,
2013-04-10 18:41:00,40.0,34.6,29.79,ENE,61,6.9,6.9,81,0.00,OVC,OVC,0.00,WeatherDisplay:10.37,2013-04-10 23:41:00,
2013-04-10 18:46:00,40.1,34.7,29.80,ENE,57,6.9,6.9,81,0.00,OVC,OVC,0.00,WeatherDisplay:10.37,2013-04-10 23:46:00,
2013-04-10 18:52:00,40.1,34.7,29.79,ENE,63,11.0,11.0,81,0.00,OVC,OVC,0.00,WeatherDisplay:10.37,2013-04-10 23:52:00,
2013-04-10 18:57:00,40.0,34.6,29.78,ENE,59,9.2,9.2,81,0.00,OVC,OVC,0.00,WeatherDisplay:10.37,2013-04-10 23:57:00,
2013-04-10 19:02:00,40.0,34.6,29.77,NE,34,8.0,8.0,81,0.00,OVC,OVC,0.00,WeatherDisplay:10.37,2013-04-11 00:02:00,
2013-04-10 19:07:00,40.0,34.6,29.79,East,92,5.8,5.8,81,0.00,OVC,OVC,0.00,WeatherDisplay:10.37,2013-04-11 00:07:00,
2013-04-10 19:12:00,39.9,34.5,29.79,East,92,6.9,6.9,81,0.00,OVC,OVC,0.00,WeatherDisplay:10.37,2013-04-11 00:12:00,
2013-04-10 19:18:00,39.9,34.5,29.80,NE,53,6.0,6.0,81,0.00,OVC,OVC,0.00,WeatherDisplay:10.37,2013-04-11 00:18:00,
2013-04-10 19:23:00,39.9,34.9,29.80,East,101,10.4,10.4,82,0.00,OVC,OVC,0.00,WeatherDisplay:10.37,2013-04-11 00:23:00,
2013-04-10 19:28:00,39.9,34.5,29.81,ENE,77,4.6,4.6,81,0.00,OVC,OVC,0.00,WeatherDisplay:10.37,2013-04-11 00:28:00,
2013-04-10 19:33:00,39.9,34.5,29.81,ENE,66,5.8,5.8,81,0.00,OVC,OVC,0.00,WeatherDisplay:10.37,2013-04-11 00:33:00,
2013-04-10 19:38:00,39.9,34.5,29.81,ENE,76,9.2,9.2,81,0.00,OVC,OVC,0.00,WeatherDisplay:10.37,2013-04-11 00:38:00,
2013-04-10 19:44:00,39.9,34.5,29.80,ENE,62,9.2,9.2,81,0.00,OVC,OVC,0.00,WeatherDisplay:10.37,2013-04-11 00:44:00,
2013-04-10 19:49:00,39.9,34.5,29.78,ENE,70,11.5,11.5,81,0.00,OVC,OVC,0.00,WeatherDisplay:10.37,2013-04-11 00:49:00,
2013-04-10 19:54:00,39.8,34.4,29.77,East,101,9.2,9.2,81,0.00,OVC,OVC,0.00,WeatherDisplay:10.37,2013-04-11 00:54:00,
2013-04-10 19:59:00,39.8,34.4,29.76,ENE,78,8.1,8.1,81,0.00,OVC,OVC,0.00,WeatherDisplay:10.37,2013-04-11 00:59:00,
2013-04-10 20:04:00,39.8,34.4,29.77,ENE,65,9.2,9.2,81,0.00,OVC,OVC,0.00,WeatherDisplay:10.37,2013-04-11 01:04:00,
2013-04-10 20:10:00,39.8,34.4,29.78,NE,46,12.7,12.7,81,0.00,OVC,OVC,0.00,WeatherDisplay:10.37,2013-04-11 01:10:00,
2013-04-10 20:15:00,39.9,34.5,29.80,East,88,3.5,3.5,81,0.00,OVC,OVC,0.00,WeatherDisplay:10.37,2013-04-11 01:15:00,
2013-04-10 20:20:00,39.9,34.5,29.80,East,80,10.4,10.4,81,0.00,OVC,OVC,0.00,WeatherDisplay:10.37,2013-04-11 01:20:00,
2013-04-10 20:25:00,39.9,34.5,29.80,East,80,6.0,6.0,81,0.00,OVC,OVC,0.00,WeatherDisplay:10.37,2013-04-11 01:25:00,
2013-04-10 20:30:00,40.0,34.6,29.80,NE,39,3.5,3.5,81,0.00,OVC,OVC,0.00,WeatherDisplay:10.37,2013-04-11 01:30:00,
2013-04-10 20:36:00,40.0,34.6,29.81,ESE,113,4.6,4.6,81,0.00,OVC,OVC,0.00,WeatherDisplay:10.37,2013-04-11 01:36:00,
2013-04-10 20:42:00,40.0,34.6,29.82,ESE,104,3.5,3.5,81,0.00,OVC,OVC,0.00,WeatherDisplay:10.37,2013-04-11 01:42:00,
2013-04-10 20:47:00,40.1,34.7,29.82,ENE,76,3.5,3.5,81,0.00,OVC,OVC,0.00,WeatherDisplay:10.37,2013-04-11 01:47:00,
2013-04-10 20:52:00,40.1,34.7,29.83,ENE,76,2.3,2.3,81,0.00,OVC,OVC,0.00,WeatherDisplay:10.37,2013-04-11 01:52:00,
2013-04-10 20:58:00,40.1,34.7,29.83,ENE,76,0.0,0.0,81,0.00,OVC,OVC,0.00,WeatherDisplay:10.37,2013-04-11 01:58:00,
2013-04-10 21:03:00,40.1,35.0,29.83,ENE,76,3.5,3.5,82,0.00,OVC,OVC,0.00,WeatherDisplay:10.37,2013-04-11 02:03:00,
2013-04-10 21:08:00,40.1,35.0,29.82,East,87,3.5,3.5,82,0.00,OVC,OVC,0.00,WeatherDisplay:10.37,2013-04-11 02:08:00,
2013-04-10 21:13:00,40.0,34.9,29.82,ENE,76,2.3,2.3,82,0.00,OVC,OVC,0.00,WeatherDisplay:10.37,2013-04-11 02:13:00,
2013-04-10 21:18:00,39.9,34.9,29.82,ENE,74,4.6,4.6,82,0.00,OVC,OVC,0.00,WeatherDisplay:10.37,2013-04-11 02:18:00,
2013-04-10 21:23:00,39.8,34.8,29.81,ENE,69,2.3,2.3,82,0.00,OVC,OVC,0.00,WeatherDisplay:10.37,2013-04-11 02:23:00,
2013-04-10 21:28:00,39.8,35.1,29.81,ENE,71,3.5,3.5,83,0.00,OVC,OVC,0.00,WeatherDisplay:10.37,2013-04-11 02:28:00,
2013-04-10 21:34:00,39.7,35.0,29.81,ENE,71,0.0,0.0,83,0.00,OVC,OVC,0.00,WeatherDisplay:10.37,2013-04-11 02:34:00,
2013-04-10 21:39:00,39.7,35.0,29.81,ENE,71,3.0,3.0,83,0.00,OVC,OVC,0.00,WeatherDisplay:10.37,2013-04-11 02:39:00,
2013-04-10 21:44:00,39.7,35.0,29.81,ENE,71,2.3,2.3,83,0.00,OVC,OVC,0.00,WeatherDisplay:10.37,2013-04-11 02:44:00,
2013-04-10 21:49:00,39.6,34.9,29.80,ENE,66,4.6,4.6,83,0.00,OVC,OVC,0.00,WeatherDisplay:10.37,2013-04-11 02:49:00,
2013-04-10 21:54:00,39.6,35.2,29.81,ENE,66,3.5,3.5,84,0.00,OVC,OVC,0.00,WeatherDisplay:10.37,2013-04-11 02:54:00,
2013-04-10 21:59:00,39.6,35.2,29.80,ENE,66,3.5,3.5,84,0.00,OVC,OVC,0.00,WeatherDisplay:10.37,2013-04-11 02:59:00,
2013-04-10 22:04:00,39.7,35.3,29.79,ENE,66,2.3,2.3,84,0.00,OVC,OVC,0.00,WeatherDisplay:10.37,2013-04-11 03:04:00,
2013-04-10 22:10:00,39.7,35.3,29.80,NE,46,0.0,0.1,84,0.00,OVC,OVC,0.00,WeatherDisplay:10.37,2013-04-11 03:10:00,
2013-04-10 22:15:00,39.6,35.2,29.80,NE,46,2.0,2.0,84,0.00,OVC,OVC,0.00,WeatherDisplay:10.37,2013-04-11 03:15:00,
2013-04-10 22:20:00,39.6,35.2,29.80,NE,46,2.3,0.0,84,0.00,OVC,OVC,0.00,WeatherDisplay:10.37,2013-04-11 03:20:00,
2013-04-10 22:25:00,39.6,35.2,29.80,NE,48,3.5,3.5,84,0.00,OVC,OVC,0.00,WeatherDisplay:10.37,2013-04-11 03:25:00,
2013-04-10 22:30:00,39.5,35.1,29.79,East,79,3.5,3.5,84,0.00,OVC,OVC,0.00,WeatherDisplay:10.37,2013-04-11 03:30:00,
2013-04-10 22:35:00,39.5,35.1,29.78,East,79,3.5,3.5,84,0.00,OVC,OVC,0.00,WeatherDisplay:10.37,2013-04-11 03:35:00,
2013-04-10 22:41:00,39.4,35.0,29.77,ENE,69,3.5,3.5,84,0.00,OVC,OVC,0.00,WeatherDisplay:10.37,2013-04-11 03:41:00,
2013-04-10 22:47:00,39.3,34.9,29.77,ENE,72,5.8,5.8,84,0.00,OVC,OVC,0.00,WeatherDisplay:10.37,2013-04-11 03:47:00,
2013-04-10 22:52:00,39.3,34.9,29.77,ENE,69,4.6,4.6,84,0.00,OVC,OVC,0.00,WeatherDisplay:10.37,2013-04-11 03:52:00,
2013-04-10 22:57:00,39.2,34.8,29.76,ENE,69,3.5,3.5,84,0.00,,,0.00,WeatherDisplay:10.37,2013-04-11 03:57:00,
2013-04-10 23:00:00,39.2,34.8,29.76,ENE,76,3.5,3.5,84,0.00,,,0.00,WeatherDisplay:10.37,2013-04-11 04:00:00,
2013-04-10 23:02:00,39.2,34.8,29.76,East,82,3.5,3.5,84,0.00,,,0.00,WeatherDisplay:10.37,2013-04-11 04:02:00,
2013-04-10 23:07:00,39.1,34.7,29.76,East,96,5.0,5.0,84,0.00,,,0.00,WeatherDisplay:10.37,2013-04-11 04:07:00,
2013-04-10 23:12:00,39.1,34.7,29.77,ENE,76,5.8,5.8,84,0.00,,,0.00,WeatherDisplay:10.37,2013-04-11 04:12:00,
2013-04-10 23:18:00,39.1,34.7,29.77,ENE,58,0.0,0.0,84,0.00,,,0.00,WeatherDisplay:10.37,2013-04-11 04:18:00,
2013-04-10 23:23:00,39.1,34.7,29.77,ENE,58,3.5,3.5,84,0.00,,,0.00,WeatherDisplay:10.37,2013-04-11 04:23:00,
2013-04-10 23:28:00,39.1,34.7,29.77,ENE,58,3.5,3.5,84,0.00,,,0.00,WeatherDisplay:10.37,2013-04-11 04:28:00,
2013-04-10 23:33:00,39.1,34.7,29.77,ENE,58,0.0,0.0,84,0.00,,,0.00,WeatherDisplay:10.37,2013-04-11 04:33:00,
2013-04-10 23:38:00,39.1,34.7,29.77,ENE,58,0.0,0.0,84,0.00,,,0.00,WeatherDisplay:10.37,2013-04-11 04:38:00,
2013-04-10 23:44:00,39.2,34.8,29.77,ENE,58,0.0,0.0,84,0.00,,,0.00,WeatherDisplay:10.37,2013-04-11 04:44:00,
2013-04-10 23:49:00,39.2,34.8,29.77,ENE,58,0.0,0.0,84,0.00,,,0.00,WeatherDisplay:10.37,2013-04-11 04:49:00,
2013-04-10 23:54:00,39.2,34.8,29.77,ENE,58,0.0,0.0,84,0.00,,,0.00,WeatherDisplay:10.37,2013-04-11 04:54:00,
2013-04-10 23:59:00,39.3,34.9,29.76,ENE,58,0.0,0.0,84,0.00,OVC,OVC,0.00,WeatherDisplay:10.37,2013-04-11 04:59:00,